Stephenville, Canada
Current Conditions -  °F | °C
As of 9:00 AM on Sunday 23 Nov 2014 (Local Time) from CYJT Reporting Station
Snow Showers Snow Showers  
Wind Chill: 23°   Ceiling: 1600
Heat Index: 36°   Visibility: 12mi
Dew Point: 30°   Wind: 26mph
Humidity: 81%   Direction: 260°W
Pressure: 29.69"   Gusts: 33mph
Location:  48.55°N, 58.58°W
Report Text: CYJT 231200Z 26023G29KT 12SM -SHSN OVC016 02/M01 A2969 RMK SC8 SLP054
Loading
Personal Weather Stations






























Interactive Weather Map New forecast layout! Learn more

10-Day Weather Forecast

Advertisements
Track Severe Weather on mobile